Terminal Aerodrome Forecast
Issued by NWS Mt. Holly, NJ

Home | Current Version | Previous Version | Text Only | Print | Product List | Glossary On
Versions: 1 2 3 4 5 6 7 8 9 10 11 12 13 14 15 16 17 18 19 20
000
FTUS41 KPHI 182340
TAFILG
TAF
KILG 182340Z 1900/1924 23005KT P6SM VCSH SCT025 BKN050
     FM190400 27005KT P6SM SCT025 BKN150
      TEMPO 1905/1908 5SM BR SCT015
     FM190800 32003KT 4SM BR BKN015
     FM191100 32005KT P6SM SCT025
     FM191400 30008KT P6SM FEW040 SCT250
     FM191800 27008KT P6SM SCT050=

USA.gov is the U.S. government's official web portal to all federal, state and local government web resources and services.